Unicom:                    122.8

AWOS:                  118.275

Elevation           1458’ MSL

TPA:                   2500’ MSL

06/24:         5003’ L   75’ W

PAPI:       06/Left     24/Left

(Operate lights on unicom freq.)

Traffic Pattern: Left

Beacon: Sunset to Sunrise

Windsock: yes, lighted

Segmented Circle: No

 

Cleveland Center: 126.72/291.65

FSS: Altoona

[Source: ADDS]
METAR
KFKL 051225Z AUTO 24004KT 3/4SM BR OVC001 17/17 A2992 RMK AO2 =
KFKL 051155Z 0512/0612 18004KT 1/4SM FG OVC001 FM051300 20003KT 3SM BR BKN007 FM051500 20005KT P6SM BKN010 FM051700 21005KT P6SM BKN020 FM051900 22005KT P6SM BKN035 FM060000 23003KT P6SM SCT035
TAF
KFKL 051155Z 0512/0612 18004KT 1/4SM FG OVC001 FM051300 20003KT 3SM BR BKN007 FM051500 20005KT P6SM BKN010 FM051700 21005KT P6SM BKN020 FM051900 22005KT P6SM BKN035 FM060000 23003KT P6SM SCT035 =
[Source: ADDS]
METAR
KDUJ 051224Z AUTO 24006KT 1 1/2SM BR OVC002 18/17 A2993 RMK AO2 T01780167 =
KDUJ 051120Z 0512/0612 24003KT 3SM BR OVC007 FM051500 23003KT P6SM OVC010 FM051800 24005KT P6SM BKN025 FM052100 25005KT P6SM BKN035 FM060000 25005KT P6SM SCT025
TAF
KDUJ 051120Z 0512/0612 24003KT 3SM BR OVC007 FM051500 23003KT P6SM OVC010 FM051800 24005KT P6SM BKN025 FM052100 25005KT P6SM BKN035 FM060000 25005KT P6SM SCT025 =

Welcome to Clarion County Airport.

We look forward to serving all of your aviation needs.


Clarion County Airport is a General Aviation, Business Class airport serving the Clarion County Area in Central Western Pennsylvania.  Our 5,003' asphalt runway and gps approaches are capable of serving most of the general aviation fleet in most weather conditions.


If you are planning a fuel stop while flying in Western Pennsylvania, consider paying us a visit. Our prices are some of the lowest in the state Check prices here ----> www.airnav.com/fuel and enter identifier KAXQ or see current prices below. We can have you fueled and taxiing out to the runway in about 10 minutes. Our current hours of operation are Monday- Sunday 8:00AM-4:00PM. Holiday closures are Christmas Day and Thanksgiving. If you require use of the facilities during the holidays or after hours please call ahead and someone will be there to assist you.


- Airport Manager -  


                             CURRENT FUEL PRICES AS OF 5/14/2020      JET-A w/additive    $3.50               100LL     $4.50 CC  


                              Self Service fueling available 24/7, credit card reader enabled. Center point fueling available upon request.

                                                           For after hours fueling assistance please contact 814-282-6001.